Time;durP1;ratioP1;P1;durP2;ratioP2;P2;SDS_P1;SDS_P2;PMS_P1;PMS_P2;Temp;Humidity;BMP_temperature;BMP_pressure;BME280_temperature;BME280_humidity;BME280_pressure;Samples;Min_cycle;Max_cycle;Signal;HPM_P1;HPM_P2
2022/03/22 00:01:25;;;;;;;11.65;10.45;;;6.00;93.40;;;;;;5041119;28;20198;-74
2022/03/22 00:03:54;;;;;;;11.45;10.25;;;5.90;93.50;;;;;;5044505;28;20248;-74
2022/03/22 00:06:21;;;;;;;10.98;9.88;;;5.90;93.70;;;;;;5045647;28;20198;-76
2022/03/22 00:08:48;;;;;;;11.60;10.40;;;5.90;93.80;;;;;;5047278;28;20276;-74
2022/03/22 00:11:16;;;;;;;12.10;9.52;;;5.80;93.70;;;;;;5044365;28;20218;-74
2022/03/22 00:13:43;;;;;;;11.10;9.93;;;5.80;93.70;;;;;;5043745;28;20643;-75
2022/03/22 00:16:12;;;;;;;11.05;9.93;;;5.80;93.80;;;;;;5050104;28;20611;-76
2022/03/22 00:18:39;;;;;;;10.43;9.43;;;5.80;94.10;;;;;;5046590;28;20226;-75
2022/03/22 00:21:07;;;;;;;10.98;9.88;;;5.80;94.10;;;;;;5048705;28;20195;-74
2022/03/22 00:23:35;;;;;;;11.75;10.32;;;5.80;94.00;;;;;;5062215;28;20233;-75
2022/03/22 00:26:03;;;;;;;11.35;10.15;;;5.80;94.00;;;;;;5048300;28;20249;-74
2022/03/22 00:28:30;;;;;;;12.60;10.77;;;5.70;93.90;;;;;;5048835;28;20309;-75
2022/03/22 00:30:58;;;;;;;12.63;11.13;;;5.70;93.80;;;;;;5048651;28;20700;-76
2022/03/22 00:33:24;;;;;;;11.45;10.20;;;5.60;93.90;;;;;;5044106;28;20287;-76
2022/03/22 00:35:53;;;;;;;11.13;9.98;;;5.60;94.10;;;;;;5047385;28;20198;-73
2022/03/22 00:38:21;;;;;;;10.77;9.65;;;5.50;94.20;;;;;;5047765;28;20238;-74
2022/03/22 00:40:49;;;;;;;11.45;9.88;;;5.40;94.40;;;;;;5043019;28;20191;-74
2022/03/22 00:43:16;;;;;;;12.02;10.82;;;5.40;94.50;;;;;;5053967;28;20218;-76
2022/03/22 00:45:43;;;;;;;10.55;9.55;;;5.30;94.50;;;;;;5050265;28;20241;-75
2022/03/22 00:48:13;;;;;;;11.73;10.23;;;5.30;94.60;;;;;;5049477;28;20215;-78
2022/03/22 00:50:42;;;;;;;10.88;9.77;;;5.30;94.70;;;;;;5050036;28;20230;-73
2022/03/22 00:53:10;;;;;;;11.07;9.88;;;5.20;94.70;;;;;;5046645;28;20206;-75
2022/03/22 00:55:40;;;;;;;10.45;9.30;;;5.20;94.70;;;;;;5054545;28;20225;-73
2022/03/22 00:58:07;;;;;;;11.35;9.43;;;5.20;94.70;;;;;;5053976;28;20236;-74
2022/03/22 01:00:35;;;;;;;10.40;9.30;;;5.20;94.80;;;;;;5051030;28;20285;-77
2022/03/22 01:03:04;;;;;;;11.10;9.95;;;5.20;94.80;;;;;;5047298;28;20240;-76
2022/03/22 01:05:32;;;;;;;10.07;9.07;;;5.20;95.00;;;;;;5054848;28;20202;-73
2022/03/22 01:08:01;;;;;;;11.25;10.07;;;5.20;94.90;;;;;;5047042;28;20219;-76
2022/03/22 01:10:30;;;;;;;11.07;9.98;;;5.20;94.90;;;;;;5051145;28;20610;-76
2022/03/22 01:12:58;;;;;;;11.07;10.07;;;5.20;94.90;;;;;;5052404;28;20545;-73
2022/03/22 01:15:28;;;;;;;11.15;10.02;;;5.20;95.10;;;;;;5048814;28;20269;-75
2022/03/22 01:17:56;;;;;;;9.98;9.07;;;5.20;95.20;;;;;;5059069;28;20661;-73
2022/03/22 01:20:25;;;;;;;10.27;9.27;;;5.20;95.20;;;;;;5048898;28;20225;-74
2022/03/22 01:22:54;;;;;;;11.50;10.30;;;5.20;95.20;;;;;;5049328;28;20260;-76
2022/03/22 01:25:23;;;;;;;10.10;9.07;;;5.30;95.20;;;;;;5049673;28;20280;-75
2022/03/22 01:27:51;;;;;;;10.30;9.20;;;5.30;95.00;;;;;;5049586;28;20713;-74
2022/03/22 01:30:20;;;;;;;10.68;9.52;;;5.30;95.10;;;;;;5045931;28;20218;-75
2022/03/22 01:32:47;;;;;;;9.98;8.90;;;5.30;95.30;;;;;;5046653;28;20214;-74
2022/03/22 01:35:15;;;;;;;9.90;8.90;;;5.30;95.30;;;;;;5045442;28;20215;-75
2022/03/22 01:37:42;;;;;;;11.43;10.23;;;5.30;95.40;;;;;;5045003;28;20199;-75
2022/03/22 01:40:11;;;;;;;10.15;8.90;;;5.30;95.40;;;;;;5050662;28;20770;-75
2022/03/22 01:42:39;;;;;;;11.18;10.07;;;5.30;95.40;;;;;;5046228;28;20276;-74
2022/03/22 01:45:07;;;;;;;11.88;10.13;;;5.30;95.40;;;;;;5045963;28;20336;-75
2022/03/22 01:47:36;;;;;;;10.63;9.52;;;5.20;95.20;;;;;;5049523;28;20296;-75
2022/03/22 01:50:05;;;;;;;10.68;9.57;;;5.20;95.30;;;;;;5047402;28;20224;-74
2022/03/22 01:52:35;;;;;;;9.98;9.07;;;5.10;95.40;;;;;;5052874;28;20300;-73
2022/03/22 01:55:03;;;;;;;10.80;9.80;;;5.10;95.60;;;;;;5045347;28;20299;-74
2022/03/22 01:57:33;;;;;;;10.85;9.07;;;5.10;95.40;;;;;;5048183;28;20250;-72
2022/03/22 02:00:01;;;;;;;13.75;9.35;;;5.10;95.40;;;;;;5051163;28;20223;-73
2022/03/22 02:08:02;;;;;;;10.93;9.77;;;5.00;95.40;;;;;;5048030;28;20269;-75
2022/03/22 02:10:29;;;;;;;11.60;9.25;;;4.90;95.40;;;;;;5056344;28;20233;-77
2022/03/22 02:12:56;;;;;;;10.63;9.38;;;4.90;95.50;;;;;;5051309;28;20280;-72
2022/03/22 02:15:23;;;;;;;9.85;8.80;;;4.80;95.60;;;;;;5046064;28;20222;-74
2022/03/22 02:17:51;;;;;;;10.93;9.40;;;4.80;95.70;;;;;;5048159;28;20240;-75
2022/03/22 02:20:20;;;;;;;10.70;9.63;;;4.90;95.90;;;;;;5047503;28;20215;-75
2022/03/22 02:22:52;;;;;;;10.43;9.40;;;4.90;95.80;;;;;;5047554;28;20241;-74
2022/03/22 02:25:21;;;;;;;11.65;9.68;;;4.90;95.80;;;;;;5046395;28;20224;-72
2022/03/22 02:27:52;;;;;;;10.32;9.23;;;4.90;95.90;;;;;;5046996;28;20195;-76
2022/03/22 02:30:19;;;;;;;11.38;10.18;;;4.90;96.00;;;;;;5048008;28;20246;-73
2022/03/22 02:32:51;;;;;;;10.80;9.80;;;4.80;96.00;;;;;;5047003;28;20272;-73
2022/03/22 02:35:18;;;;;;;10.68;9.68;;;4.80;96.10;;;;;;5047011;28;20214;-73
2022/03/22 02:37:46;;;;;;;9.93;8.90;;;4.70;96.20;;;;;;5049497;28;20202;-73
2022/03/22 02:40:14;;;;;;;11.00;9.98;;;4.70;96.20;;;;;;5046110;28;20284;-73
2022/03/22 02:42:44;;;;;;;10.02;9.13;;;4.70;96.30;;;;;;5044199;28;20379;-74
2022/03/22 02:45:12;;;;;;;9.93;8.93;;;4.80;96.20;;;;;;5047110;28;20225;-73
2022/03/22 02:47:40;;;;;;;10.05;9.10;;;4.80;96.30;;;;;;5046902;28;20278;-74
2022/03/22 02:50:08;;;;;;;10.55;9.50;;;4.80;96.30;;;;;;5048490;28;20233;-74
2022/03/22 02:52:36;;;;;;;10.65;9.55;;;4.70;96.20;;;;;;5049616;28;20257;-74
2022/03/22 02:55:06;;;;;;;11.00;9.88;;;4.70;96.10;;;;;;5045872;28;20229;-74
2022/03/22 02:57:33;;;;;;;10.93;9.43;;;4.70;96.20;;;;;;5050965;28;20202;-74
2022/03/22 03:00:02;;;;;;;10.40;9.40;;;4.70;96.30;;;;;;5046906;28;20227;-72
2022/03/22 03:02:29;;;;;;;10.82;9.23;;;4.60;96.30;;;;;;5048101;28;20241;-75
2022/03/22 03:04:56;;;;;;;10.50;9.40;;;4.60;96.40;;;;;;5056262;28;20231;-74
2022/03/22 03:07:23;;;;;;;11.00;9.90;;;4.60;96.40;;;;;;5049500;28;20241;-74
2022/03/22 03:09:50;;;;;;;10.15;9.18;;;4.60;96.20;;;;;;5048451;28;20219;-74
2022/03/22 03:12:17;;;;;;;12.50;9.30;;;4.60;96.30;;;;;;5043997;28;20222;-73
2022/03/22 03:14:47;;;;;;;9.77;8.77;;;4.60;96.20;;;;;;5047154;28;20223;-72
2022/03/22 03:17:16;;;;;;;11.02;9.93;;;4.60;96.40;;;;;;5052615;28;20210;-73
2022/03/22 03:19:43;;;;;;;10.90;9.77;;;4.60;96.40;;;;;;5043172;28;20226;-74
2022/03/22 03:22:11;;;;;;;9.25;8.35;;;4.60;96.40;;;;;;5046272;28;20203;-75
2022/03/22 03:24:38;;;;;;;11.02;9.93;;;4.50;96.50;;;;;;5049452;28;20276;-74
2022/03/22 03:27:05;;;;;;;11.35;10.18;;;4.50;96.50;;;;;;5046630;28;20195;-73
2022/03/22 03:29:32;;;;;;;9.88;8.98;;;4.50;96.70;;;;;;5049352;28;20222;-73
2022/03/22 03:31:59;;;;;;;11.07;9.77;;;4.40;96.80;;;;;;5048103;28;21861;-74
2022/03/22 03:34:28;;;;;;;10.43;9.40;;;4.40;96.80;;;;;;5046561;28;20230;-73
2022/03/22 03:36:55;;;;;;;10.30;9.02;;;4.40;96.90;;;;;;5049187;28;20719;-72
2022/03/22 03:39:22;;;;;;;11.05;9.30;;;4.30;97.00;;;;;;5049017;28;20218;-72
2022/03/22 03:41:55;;;;;;;9.05;8.15;;;4.30;97.00;;;;;;5043968;28;20192;-74
2022/03/22 03:47:11;;;;;;;11.15;9.35;;;4.30;97.00;;;;;;5044346;28;20734;-74
2022/03/22 03:49:42;;;;;;;11.77;9.18;;;4.30;97.10;;;;;;5048079;28;20242;-73
2022/03/22 03:52:10;;;;;;;10.57;9.55;;;4.20;97.10;;;;;;5045232;28;20231;-74
2022/03/22 03:54:38;;;;;;;10.85;9.63;;;4.20;97.20;;;;;;5048039;28;20783;-75
2022/03/22 03:57:06;;;;;;;10.10;9.10;;;4.20;97.20;;;;;;5044289;28;20206;-75
2022/03/22 03:59:33;;;;;;;10.80;9.60;;;4.20;97.20;;;;;;5049244;28;20669;-73
2022/03/22 04:02:00;;;;;;;10.75;9.68;;;4.20;97.10;;;;;;5049245;28;20202;-75
2022/03/22 04:04:27;;;;;;;11.63;10.43;;;4.20;96.90;;;;;;5044374;28;20219;-73
2022/03/22 04:06:56;;;;;;;12.45;10.68;;;4.10;97.00;;;;;;5049068;28;20203;-75
2022/03/22 04:09:23;;;;;;;12.25;10.95;;;4.10;97.10;;;;;;5045173;28;20226;-73
2022/03/22 04:11:50;;;;;;;11.90;10.70;;;4.00;97.30;;;;;;5050321;28;20265;-73
2022/03/22 04:14:17;;;;;;;11.38;10.27;;;4.00;97.30;;;;;;5045411;28;20268;-75
2022/03/22 04:16:44;;;;;;;11.52;9.98;;;4.00;97.30;;;;;;5047623;28;20195;-74
2022/03/22 04:19:11;;;;;;;11.68;10.40;;;3.90;97.50;;;;;;5049183;28;20663;-76
2022/03/22 04:21:39;;;;;;;11.10;10.10;;;3.90;97.70;;;;;;5051743;28;20669;-76
2022/03/22 04:24:10;;;;;;;12.60;11.13;;;3.90;97.70;;;;;;5052782;28;20219;-75
2022/03/22 04:26:38;;;;;;;11.68;9.38;;;3.90;97.70;;;;;;5050218;28;20261;-74
2022/03/22 04:34:35;;;;;;;11.57;9.98;;;4.00;97.70;;;;;;5043119;28;20704;-74
2022/03/22 04:37:03;;;;;;;11.45;10.35;;;3.90;97.70;;;;;;5050493;28;21065;-76
2022/03/22 04:39:32;;;;;;;11.05;9.98;;;3.90;97.60;;;;;;5051566;28;20218;-74
2022/03/22 04:42:00;;;;;;;10.52;9.52;;;3.90;97.50;;;;;;5048490;28;20680;-74
2022/03/22 04:44:29;;;;;;;10.50;9.50;;;3.90;97.70;;;;;;5048246;28;20712;-73
2022/03/22 04:46:57;;;;;;;11.25;10.07;;;3.90;97.70;;;;;;5048636;28;20203;-75
2022/03/22 04:49:25;;;;;;;11.63;9.95;;;3.90;97.70;;;;;;5049368;28;20230;-76
2022/03/22 04:57:19;;;;;;;10.63;9.52;;;3.80;97.80;;;;;;5047167;28;20340;-74
2022/03/22 04:59:47;;;;;;;10.55;9.25;;;3.70;97.90;;;;;;5049652;28;20272;-74
2022/03/22 05:02:14;;;;;;;10.50;9.23;;;3.70;97.90;;;;;;5049020;28;20628;-74
2022/03/22 05:04:41;;;;;;;10.23;9.23;;;3.70;98.00;;;;;;5046134;28;20219;-74
2022/03/22 05:07:08;;;;;;;11.52;10.15;;;3.70;97.90;;;;;;5047942;28;20198;-75
2022/03/22 05:09:37;;;;;;;11.88;10.48;;;3.70;98.10;;;;;;5046714;28;20231;-74
2022/03/22 05:12:05;;;;;;;12.65;11.45;;;3.60;98.00;;;;;;5048755;28;20280;-74
2022/03/22 05:14:34;;;;;;;11.68;10.57;;;3.60;98.20;;;;;;5050243;28;20295;-74
2022/03/22 05:17:01;;;;;;;13.25;10.05;;;3.50;98.30;;;;;;5050297;28;20230;-73
2022/03/22 05:19:28;;;;;;;11.43;10.23;;;3.50;98.40;;;;;;5048223;28;20223;-73
2022/03/22 05:21:55;;;;;;;11.48;10.30;;;3.50;98.80;;;;;;5046722;28;20258;-72
2022/03/22 05:24:22;;;;;;;10.88;9.77;;;3.50;98.50;;;;;;5048653;28;20230;-73
2022/03/22 05:26:50;;;;;;;11.02;9.85;;;3.50;98.60;;;;;;5047676;28;20207;-73
2022/03/22 05:29:17;;;;;;;9.98;8.93;;;3.50;98.60;;;;;;5051727;28;20226;-74
2022/03/22 05:31:45;;;;;;;10.65;9.55;;;3.60;98.50;;;;;;5048424;28;20191;-71
2022/03/22 05:34:13;;;;;;;10.63;9.52;;;3.60;98.40;;;;;;5047837;28;20627;-75
2022/03/22 05:36:40;;;;;;;13.18;10.73;;;3.70;98.30;;;;;;5047955;28;20205;-74
2022/03/22 05:39:07;;;;;;;10.20;9.20;;;3.70;98.20;;;;;;5048710;28;20219;-76
2022/03/22 05:41:34;;;;;;;11.75;10.55;;;3.80;98.90;;;;;;5049389;28;20971;-75
2022/03/22 05:44:03;;;;;;;12.88;11.27;;;3.80;98.40;;;;;;5046800;28;20199;-75
2022/03/22 05:46:31;;;;;;;13.85;11.73;;;3.80;98.40;;;;;;5056055;28;20198;-74
2022/03/22 05:48:58;;;;;;;13.75;10.77;;;3.80;98.10;;;;;;5051590;28;21894;-74
2022/03/22 05:51:26;;;;;;;13.40;12.00;;;3.80;98.10;;;;;;5047331;28;20222;-75
2022/03/22 05:53:53;;;;;;;17.50;12.57;;;3.80;98.10;;;;;;5045327;28;20808;-75
2022/03/22 05:56:20;;;;;;;13.57;12.15;;;3.70;98.10;;;;;;5043427;28;20230;-73
2022/03/22 05:58:47;;;;;;;13.93;11.68;;;3.70;98.20;;;;;;5047511;28;20233;-76
2022/03/22 06:01:16;;;;;;;15.48;12.80;;;3.70;98.20;;;;;;5047057;28;20789;-76
2022/03/22 06:03:43;;;;;;;13.57;11.52;;;3.80;98.20;;;;;;5047293;28;20191;-76
2022/03/22 06:06:10;;;;;;;14.88;12.30;;;3.90;98.20;;;;;;5046241;28;20226;-75
2022/03/22 06:08:37;;;;;;;12.25;10.85;;;4.20;98.20;;;;;;5042981;28;20215;-74
2022/03/22 06:11:04;;;;;;;12.82;11.32;;;4.60;98.00;;;;;;5047191;28;20280;-76
2022/03/22 06:13:31;;;;;;;12.82;10.98;;;5.10;97.70;;;;;;5046799;28;20214;-74
2022/03/22 06:15:58;;;;;;;11.32;10.18;;;5.60;97.50;;;;;;5048284;28;20222;-74
2022/03/22 06:18:27;;;;;;;12.00;10.80;;;6.10;97.10;;;;;;5046820;28;20219;-76
2022/03/22 06:20:54;;;;;;;11.02;9.70;;;6.60;96.30;;;;;;5047119;28;20225;-76
2022/03/22 06:23:22;;;;;;;11.52;10.13;;;6.90;95.60;;;;;;5047215;28;20199;-75
2022/03/22 06:25:51;;;;;;;11.60;10.43;;;7.10;95.50;;;;;;5046763;28;20298;-77
2022/03/22 06:28:18;;;;;;;11.40;9.65;;;7.40;95.50;;;;;;5048731;28;20215;-75
2022/03/22 06:30:45;;;;;;;10.73;9.73;;;7.60;95.20;;;;;;5046487;28;20215;-74
2022/03/22 06:33:16;;;;;;;11.13;10.02;;;7.90;94.80;;;;;;5045237;28;20762;-77
2022/03/22 06:35:46;;;;;;;10.88;9.88;;;8.20;94.60;;;;;;5045287;28;20214;-71
2022/03/22 06:38:14;;;;;;;11.32;10.23;;;8.40;94.50;;;;;;5046037;28;20620;-73
2022/03/22 06:40:41;;;;;;;11.77;10.57;;;8.60;94.30;;;;;;5056774;28;20215;-75
2022/03/22 06:43:10;;;;;;;10.02;9.13;;;8.80;94.40;;;;;;5046890;28;20212;-73
2022/03/22 06:45:38;;;;;;;11.45;10.25;;;9.00;93.70;;;;;;5047731;28;20325;-75
2022/03/22 06:48:06;;;;;;;11.25;9.23;;;9.40;93.40;;;;;;5047424;28;20269;-74
2022/03/22 06:50:34;;;;;;;10.48;9.38;;;9.70;93.20;;;;;;5048919;28;20227;-75
2022/03/22 06:53:04;;;;;;;11.63;10.43;;;9.70;93.20;;;;;;5048170;28;20223;-73
2022/03/22 06:55:32;;;;;;;11.38;10.27;;;9.90;93.30;;;;;;5048458;28;20309;-75
2022/03/22 06:58:00;;;;;;;12.40;11.05;;;10.00;93.10;;;;;;5047896;28;20526;-74
2022/03/22 07:00:28;;;;;;;12.52;10.48;;;10.20;93.10;;;;;;5049402;28;20218;-74
2022/03/22 07:02:56;;;;;;;10.75;9.65;;;10.50;92.70;;;;;;5049718;28;20214;-80
2022/03/22 07:05:23;;;;;;;12.45;11.13;;;10.70;92.60;;;;;;5046815;28;20222;-75
2022/03/22 07:07:50;;;;;;;12.93;11.65;;;10.80;92.50;;;;;;5047354;28;20195;-78
2022/03/22 07:10:19;;;;;;;12.15;10.75;;;11.00;92.20;;;;;;5047878;28;20210;-75
2022/03/22 07:12:51;;;;;;;10.93;9.82;;;11.20;92.10;;;;;;5043010;28;20214;-79
2022/03/22 07:15:20;;;;;;;11.13;9.93;;;11.40;91.90;;;;;;5051121;28;20809;-74
2022/03/22 07:17:47;;;;;;;13.63;11.27;;;11.60;91.70;;;;;;5045232;28;20544;-77
2022/03/22 07:20:14;;;;;;;13.43;11.07;;;11.70;91.40;;;;;;5049869;28;20215;-76
2022/03/22 07:22:43;;;;;;;12.32;10.85;;;11.60;91.60;;;;;;5049365;28;20303;-76
2022/03/22 07:25:10;;;;;;;11.20;9.75;;;11.50;91.40;;;;;;5050202;28;20215;-73
2022/03/22 07:27:39;;;;;;;12.88;10.80;;;11.50;91.30;;;;;;5053970;28;20337;-74
2022/03/22 07:30:07;;;;;;;12.27;10.57;;;11.70;91.10;;;;;;5043553;28;20256;-74
2022/03/22 07:32:34;;;;;;;11.98;10.18;;;11.60;90.70;;;;;;5048103;28;20187;-74
2022/03/22 07:35:02;;;;;;;11.07;9.98;;;11.60;90.70;;;;;;5055883;28;20231;-76
2022/03/22 07:37:29;;;;;;;12.23;10.88;;;11.70;90.80;;;;;;5047422;28;20194;-74
2022/03/22 07:39:57;;;;;;;11.82;10.68;;;11.80;90.50;;;;;;5049955;28;20227;-76
2022/03/22 07:42:27;;;;;;;12.02;10.60;;;11.80;90.50;;;;;;5050925;28;20285;-74
2022/03/22 07:44:56;;;;;;;12.15;10.68;;;11.80;90.50;;;;;;5050767;28;20214;-76
2022/03/22 07:47:23;;;;;;;11.68;10.57;;;12.20;90.30;;;;;;5044151;28;20198;-76
2022/03/22 07:55:22;;;;;;;11.10;10.00;;;12.20;90.00;;;;;;5043386;28;20939;-77
2022/03/22 07:57:49;;;;;;;11.52;10.32;;;12.20;90.50;;;;;;5038809;28;20260;-74
2022/03/22 08:00:20;;;;;;;10.90;9.68;;;12.30;90.60;;;;;;5043349;28;20288;-77
2022/03/22 08:02:54;;;;;;;11.63;10.35;;;12.50;90.50;;;;;;5045389;28;20705;-76
2022/03/22 08:05:21;;;;;;;11.35;10.15;;;12.80;90.10;;;;;;5037183;28;20222;-75
2022/03/22 08:07:48;;;;;;;12.32;11.02;;;12.80;90.10;;;;;;5042849;28;20228;-76
2022/03/22 08:10:16;;;;;;;12.15;10.80;;;12.80;90.30;;;;;;5042503;28;20218;-76
2022/03/22 08:12:43;;;;;;;12.80;11.50;;;13.00;90.50;;;;;;5039252;28;20261;-75
2022/03/22 08:15:10;;;;;;;13.02;11.00;;;13.20;90.60;;;;;;5039855;28;20226;-76
2022/03/22 08:17:40;;;;;;;13.95;11.45;;;13.10;90.20;;;;;;5036494;28;20207;-75
2022/03/22 08:20:09;;;;;;;12.20;10.43;;;13.20;90.00;;;;;;5036954;28;20280;-77
2022/03/22 08:22:50;;;;;;;12.52;10.75;;;13.00;89.90;;;;;;5042646;28;20199;-79
2022/03/22 08:25:23;;;;;;;11.55;10.35;;;13.20;88.80;;;;;;5040299;28;20221;-78
2022/03/22 08:27:51;;;;;;;11.73;10.52;;;13.10;90.10;;;;;;5050285;28;20396;-82
2022/03/22 08:30:21;;;;;;;11.32;10.18;;;13.00;90.30;;;;;;5041114;28;20280;-76
2022/03/22 08:32:50;;;;;;;11.93;10.50;;;12.90;90.30;;;;;;5044730;28;20659;-76
2022/03/22 08:35:17;;;;;;;12.90;10.77;;;13.00;90.50;;;;;;5040392;28;20215;-76
2022/03/22 08:37:44;;;;;;;12.13;10.05;;;13.10;90.10;;;;;;5044470;28;20191;-74
2022/03/22 08:40:14;;;;;;;11.20;10.10;;;13.40;89.50;;;;;;5063999;22;20231;-75
2022/03/22 08:42:43;;;;;;;12.50;10.57;;;13.40;89.60;;;;;;5038630;28;20222;-74
2022/03/22 08:45:12;;;;;;;12.93;11.45;;;13.60;89.20;;;;;;5036423;28;20242;-75
2022/03/22 08:47:40;;;;;;;13.27;11.00;;;13.70;89.30;;;;;;5035517;28;20187;-75
2022/03/22 08:50:10;;;;;;;12.48;11.18;;;13.80;90.20;;;;;;5030993;28;20219;-73
2022/03/22 08:52:38;;;;;;;11.80;10.52;;;13.90;89.60;;;;;;5012927;28;20269;-75
2022/03/22 08:55:07;;;;;;;11.88;10.68;;;14.20;89.90;;;;;;5013310;28;20293;-76
2022/03/22 08:57:35;;;;;;;13.32;10.75;;;14.40;88.90;;;;;;5016556;28;20536;-76
2022/03/22 09:00:06;;;;;;;12.43;11.13;;;14.50;88.30;;;;;;5022120;28;21281;-75
2022/03/22 09:02:33;;;;;;;11.20;10.05;;;14.60;88.50;;;;;;5019388;28;20210;-75
2022/03/22 09:07:47;;;;;;;12.18;10.77;;;14.60;85.60;;;;;;5017042;28;20277;-75
2022/03/22 09:10:15;;;;;;;11.90;10.63;;;14.60;86.20;;;;;;5016560;28;20228;-75
2022/03/22 09:12:43;;;;;;;12.60;11.30;;;14.30;85.50;;;;;;5022259;28;20195;-75
2022/03/22 09:15:11;;;;;;;12.20;10.90;;;14.10;86.90;;;;;;5015817;28;20310;-74
2022/03/22 09:17:38;;;;;;;12.50;11.10;;;14.10;87.10;;;;;;5019235;28;20240;-75
2022/03/22 09:20:07;;;;;;;15.25;11.02;;;14.00;87.00;;;;;;5019320;28;20283;-74
2022/03/22 09:22:34;;;;;;;11.68;10.48;;;13.90;86.80;;;;;;5020529;28;20670;-75
2022/03/22 09:25:03;;;;;;;12.90;11.07;;;14.10;87.50;;;;;;5019264;28;20188;-75
2022/03/22 09:27:30;;;;;;;12.13;10.30;;;14.10;87.50;;;;;;5022058;28;20209;-76
2022/03/22 09:29:57;;;;;;;12.77;10.85;;;14.60;86.40;;;;;;5019689;28;20433;-76
2022/03/22 09:32:25;;;;;;;11.55;10.40;;;14.90;85.20;;;;;;5020229;28;20573;-76
2022/03/22 09:34:52;;;;;;;11.98;10.77;;;14.70;84.10;;;;;;5014390;28;20322;-77
2022/03/22 09:37:19;;;;;;;12.02;10.63;;;15.00;83.60;;;;;;5016876;28;20761;-75
2022/03/22 09:39:46;;;;;;;12.43;10.35;;;15.10;82.60;;;;;;5018100;28;20263;-76
2022/03/22 09:42:16;;;;;;;11.95;10.68;;;15.10;82.50;;;;;;5018351;28;20212;-75
2022/03/22 09:44:48;;;;;;;12.63;10.20;;;15.20;83.40;;;;;;5019282;28;20540;-75
2022/03/22 09:47:16;;;;;;;12.20;10.93;;;15.10;81.00;;;;;;5017979;28;20255;-76
2022/03/22 09:49:43;;;;;;;11.20;10.05;;;15.40;82.20;;;;;;5018306;28;20195;-75
2022/03/22 09:52:11;;;;;;;10.77;9.60;;;15.40;81.80;;;;;;5019521;28;20657;-75
2022/03/22 09:54:41;;;;;;;12.75;10.55;;;15.50;81.10;;;;;;5018032;28;20228;-75
2022/03/22 09:57:08;;;;;;;12.77;11.48;;;15.70;80.00;;;;;;5025283;28;20258;-75
2022/03/22 09:59:37;;;;;;;12.63;10.50;;;15.70;80.50;;;;;;5019904;28;20199;-75
2022/03/22 10:02:05;;;;;;;12.63;10.05;;;15.50;80.30;;;;;;5017930;28;20219;-76
2022/03/22 10:04:40;;;;;;;12.73;10.30;;;15.70;79.60;;;;;;5016583;28;20949;-74
2022/03/22 10:07:07;;;;;;;11.43;10.32;;;15.80;79.80;;;;;;5015878;28;20223;-74
2022/03/22 10:09:38;;;;;;;11.10;9.95;;;16.00;79.70;;;;;;5013384;28;20295;-76
2022/03/22 10:12:10;;;;;;;12.85;10.90;;;15.90;78.50;;;;;;5021327;28;20215;-75
2022/03/22 10:14:41;;;;;;;11.02;9.93;;;15.90;79.40;;;;;;5019319;28;20222;-74
2022/03/22 10:17:13;;;;;;;10.82;9.73;;;16.10;78.50;;;;;;5015787;28;20293;-75
2022/03/22 10:19:45;;;;;;;11.13;10.02;;;16.50;78.10;;;;;;5016825;28;20203;-75
2022/03/22 10:22:12;;;;;;;11.95;10.80;;;16.50;77.20;;;;;;5018131;28;20242;-75
2022/03/22 10:24:44;;;;;;;10.23;9.23;;;16.50;78.80;;;;;;5021754;28;20632;-76
2022/03/22 10:27:22;;;;;;;10.57;9.55;;;16.60;79.00;;;;;;5018410;28;20929;-76
2022/03/22 10:29:51;;;;;;;13.63;10.25;;;16.40;76.10;;;;;;5018268;28;20191;-74
2022/03/22 10:32:19;;;;;;;10.63;9.63;;;16.20;77.00;;;;;;5020100;28;20222;-76
2022/03/22 10:34:46;;;;;;;10.70;9.70;;;16.20;75.60;;;;;;5022334;28;20224;-76
2022/03/22 10:37:13;;;;;;;9.15;8.25;;;16.40;74.80;;;;;;5022082;28;20227;-76
2022/03/22 10:39:42;;;;;;;10.90;8.65;;;16.70;74.90;;;;;;5018566;28;20251;-74
2022/03/22 10:42:10;;;;;;;9.57;8.68;;;17.10;75.80;;;;;;5017352;28;20318;-74
2022/03/22 10:44:38;;;;;;;10.52;8.77;;;17.00;73.20;;;;;;5017353;28;20653;-75
2022/03/22 10:47:08;;;;;;;9.95;8.98;;;16.70;74.30;;;;;;5016959;28;20227;-76
2022/03/22 10:49:36;;;;;;;10.55;9.48;;;16.80;76.20;;;;;;5015256;28;20228;-74
2022/03/22 10:52:08;;;;;;;9.70;8.80;;;17.00;75.40;;;;;;5014674;28;20215;-76
2022/03/22 10:54:35;;;;;;;10.38;9.38;;;17.00;73.90;;;;;;5019047;28;20219;-74
2022/03/22 10:57:02;;;;;;;10.40;9.40;;;17.30;73.40;;;;;;5017548;28;20223;-76
2022/03/22 10:59:29;;;;;;;10.50;9.25;;;17.40;73.10;;;;;;5017207;28;20192;-74
2022/03/22 11:01:56;;;;;;;10.68;9.27;;;17.20;71.40;;;;;;5020905;28;20228;-75
2022/03/22 11:04:25;;;;;;;10.77;9.68;;;16.90;70.90;;;;;;5020541;28;20613;-75
2022/03/22 11:06:55;;;;;;;11.68;9.02;;;17.00;72.00;;;;;;5014670;28;20215;-77
2022/03/22 11:09:24;;;;;;;10.18;9.18;;;17.20;71.60;;;;;;5011844;28;20639;-75
2022/03/22 11:11:51;;;;;;;10.80;9.75;;;17.30;70.60;;;;;;5014443;28;20223;-74
2022/03/22 11:14:19;;;;;;;10.43;9.40;;;17.10;71.40;;;;;;5019810;28;20724;-75
2022/03/22 11:16:48;;;;;;;10.48;9.43;;;17.10;72.00;;;;;;5014291;28;20328;-74
2022/03/22 11:19:17;;;;;;;10.52;9.55;;;17.00;70.00;;;;;;5015638;28;20488;-75
2022/03/22 11:21:48;;;;;;;10.70;9.40;;;16.60;71.70;;;;;;5015734;28;20319;-76
2022/03/22 11:24:15;;;;;;;10.90;9.80;;;16.70;71.40;;;;;;5022947;28;20201;-73
2022/03/22 11:26:44;;;;;;;10.43;8.93;;;17.00;70.80;;;;;;5011880;28;20235;-74
2022/03/22 11:29:15;;;;;;;10.80;9.73;;;16.80;70.90;;;;;;5018498;28;20195;-76
2022/03/22 11:34:08;;;;;;;9.98;8.90;;;16.80;70.10;;;;;;5020213;28;20403;-73
2022/03/22 11:34:30;;;;;;;9.80;8.45;;;16.60;70.40;;;;;;5013660;28;20353;-74
2022/03/22 11:37:01;;;;;;;10.10;9.07;;;16.60;69.70;;;;;;5017075;28;20223;-76
2022/03/22 11:42:18;;;;;;;10.43;9.23;;;17.00;68.90;;;;;;5017214;28;20223;-73
2022/03/22 11:44:56;;;;;;;8.77;7.85;;;17.30;70.40;;;;;;5018865;28;20206;-75
2022/03/22 11:47:23;;;;;;;9.43;8.52;;;17.70;67.50;;;;;;5015152;28;20746;-76
2022/03/22 11:49:53;;;;;;;9.68;7.97;;;17.70;67.80;;;;;;5013115;28;20199;-77
2022/03/22 11:52:24;;;;;;;8.90;8.02;;;17.60;67.20;;;;;;5015648;28;20239;-77
2022/03/22 11:54:56;;;;;;;10.15;8.27;;;17.40;66.90;;;;;;5014354;28;20224;-76
2022/03/22 11:57:24;;;;;;;10.15;8.95;;;17.40;68.30;;;;;;5016126;28;20289;-76
2022/03/22 11:59:52;;;;;;;8.73;7.82;;;17.50;68.20;;;;;;5018421;28;20199;-75
2022/03/22 12:02:22;;;;;;;10.10;8.80;;;17.60;67.50;;;;;;5016219;28;20223;-76
2022/03/22 12:04:54;;;;;;;11.13;8.63;;;17.20;68.30;;;;;;5016100;28;20682;-74
2022/03/22 12:07:28;;;;;;;10.50;9.40;;;17.20;69.10;;;;;;5019497;28;20219;-76
2022/03/22 12:10:04;;;;;;;10.55;9.50;;;17.20;70.10;;;;;;5020821;28;20277;-76
2022/03/22 12:12:35;;;;;;;10.75;9.65;;;17.20;70.30;;;;;;5012551;28;20242;-75
2022/03/22 12:15:04;;;;;;;11.40;9.30;;;17.20;70.50;;;;;;5017358;28;20228;-77
2022/03/22 12:17:31;;;;;;;12.02;9.55;;;17.20;70.70;;;;;;5019241;28;20223;-75
2022/03/22 12:20:00;;;;;;;10.80;9.80;;;16.90;71.50;;;;;;5013932;28;20281;-77
2022/03/22 12:22:30;;;;;;;11.82;10.35;;;16.50;71.20;;;;;;5018172;28;20223;-76
2022/03/22 12:24:59;;;;;;;10.38;9.32;;;16.50;72.00;;;;;;5013345;28;20628;-75
2022/03/22 12:27:26;;;;;;;10.77;9.70;;;16.60;72.10;;;;;;5021443;28;20227;-74
2022/03/22 12:29:55;;;;;;;10.95;9.85;;;16.90;71.20;;;;;;5018271;28;20216;-76
2022/03/22 12:32:26;;;;;;;10.20;9.30;;;16.90;70.40;;;;;;5020310;28;20222;-75
2022/03/22 12:34:53;;;;;;;10.60;8.73;;;16.80;71.30;;;;;;5027134;28;20223;-74
2022/03/22 12:37:21;;;;;;;10.30;9.30;;;16.90;70.90;;;;;;5016289;28;20876;-74
2022/03/22 12:39:49;;;;;;;10.57;9.57;;;16.90;71.60;;;;;;5021561;28;20191;-74
2022/03/22 12:42:18;;;;;;;12.55;9.93;;;17.30;72.70;;;;;;5022747;28;20311;-75
2022/03/22 12:44:46;;;;;;;11.65;10.55;;;17.70;72.90;;;;;;5019871;28;20294;-76
2022/03/22 12:47:13;;;;;;;10.80;9.68;;;17.80;71.30;;;;;;5021271;28;20788;-75
2022/03/22 12:49:41;;;;;;;10.07;9.07;;;17.90;72.10;;;;;;5021157;28;20199;-75
2022/03/22 12:52:09;;;;;;;10.27;9.30;;;18.40;71.00;;;;;;5021837;28;20705;-77
2022/03/22 12:54:40;;;;;;;9.98;8.98;;;18.80;71.90;;;;;;5019801;28;20230;-76
2022/03/22 12:57:10;;;;;;;10.40;9.35;;;19.00;71.20;;;;;;5019940;28;20234;-76
2022/03/22 12:59:38;;;;;;;10.23;8.70;;;19.10;67.90;;;;;;5025528;28;20199;-76
2022/03/22 13:02:07;;;;;;;9.73;8.18;;;19.10;68.50;;;;;;5020316;28;20284;-76
2022/03/22 13:04:36;;;;;;;9.40;8.23;;;19.20;66.80;;;;;;5022397;28;20192;-76
2022/03/22 13:07:05;;;;;;;11.63;8.32;;;19.10;67.00;;;;;;5024183;28;20224;-76
2022/03/22 13:12:20;;;;;;;8.57;7.60;;;18.90;66.20;;;;;;5022816;28;20738;-77
2022/03/22 13:15:04;;;;;;;8.80;7.97;;;19.20;66.50;;;;;;5022206;28;20219;-74
2022/03/22 13:17:33;;;;;;;8.40;7.60;;;19.20;66.10;;;;;;5019750;28;20212;-76